Terminal Aerodrome Forecast
Issued by NWS

Home | Current Version | Previous Version | Text Only | Print | Product List | Glossary On
Versions: 1 2 3 4 5 6 7 8 9 10 11 12 13 14 15 16 17 18
462
FTUS43 KGRR 042027 AAA
TAFLAN
TAF AMD
KLAN 042027Z 0420/0518 15009KT 3SM -SN BR OVC015
     FM042100 15009KT 1SM -SN BR OVC008
      TEMPO 0421/0501 1/4SM SN FG OVC004
     FM050500 23008KT 3SM -SN BR OVC009
     FM050700 26007KT 6SM BR OVC015
     FM051600 24008KT P6SM OVC025=

USA.gov is the U.S. government's official web portal to all federal, state and local government web resources and services.